Time;durP1;ratioP1;P1;durP2;ratioP2;P2;SDS_P1;SDS_P2;PMS_P1;PMS_P2;Temp;Humidity;BMP_temperature;BMP_pressure;BME280_temperature;BME280_humidity;BME280_pressure;Samples;Min_cycle;Max_cycle;Signal;HPM_P1;HPM_P2
2020/12/22 00:00:40;;;;;;;112.30;57.58;;;;;;;1.71;90.40;100841.91;126669;1093;104498;-78
2020/12/22 00:03:12;;;;;;;105.67;57.57;;;;;;;1.72;90.30;100858.20;126665;1093;104610;-76
2020/12/22 00:05:39;;;;;;;105.30;56.17;;;;;;;1.73;90.37;100845.36;126653;1099;104541;-77
2020/12/22 00:08:11;;;;;;;105.80;55.70;;;;;;;1.71;90.21;100849.63;126429;1099;104480;-77
2020/12/22 00:10:38;;;;;;;103.70;57.20;;;;;;;1.71;90.32;100847.05;126662;1094;104395;-76
2020/12/22 00:13:06;;;;;;;104.00;56.57;;;;;;;1.70;90.25;100850.47;126448;1098;104378;-77
2020/12/22 00:15:33;;;;;;;100.97;55.17;;;;;;;1.71;90.23;100841.91;126447;1100;104519;-77
2020/12/22 00:18:08;;;;;;;100.73;56.73;;;;;;;1.72;90.17;100841.06;126574;1093;104545;-77
2020/12/22 00:20:35;;;;;;;108.47;57.37;;;;;;;1.71;90.10;100839.34;126644;1093;104398;-76
2020/12/22 00:23:03;;;;;;;107.20;58.07;;;;;;;1.70;90.04;100845.33;126702;1093;104491;-77
2020/12/22 00:25:30;;;;;;;108.87;56.10;;;;;;;1.70;90.15;100839.32;126745;1093;104531;-76
2020/12/22 00:27:58;;;;;;;104.03;54.87;;;;;;;1.68;89.99;100831.59;126676;1098;104485;-77
2020/12/22 00:30:25;;;;;;;99.45;55.25;;;;;;;1.68;90.00;100831.59;126656;1093;104477;-76
2020/12/22 00:32:52;;;;;;;95.67;51.83;;;;;;;1.69;89.96;100812.75;126668;1098;104550;-77
2020/12/22 00:35:20;;;;;;;100.02;53.98;;;;;;;1.68;90.23;100816.16;126464;1097;104455;-77
2020/12/22 00:37:47;;;;;;;100.10;56.25;;;;;;;1.69;90.04;100835.89;126652;1093;104456;-77
2020/12/22 00:40:15;;;;;;;99.42;53.17;;;;;;;1.68;89.78;100826.45;126628;1093;104406;-77
2020/12/22 00:42:42;;;;;;;100.80;53.23;;;;;;;1.67;89.77;100827.30;126640;1093;104400;-77
2020/12/22 00:45:10;;;;;;;96.50;53.43;;;;;;;1.68;90.31;100821.30;126471;1093;104500;-77
2020/12/22 00:47:37;;;;;;;100.10;55.67;;;;;;;1.68;89.84;100812.73;126652;1093;104381;-77
2020/12/22 00:50:05;;;;;;;100.83;55.40;;;;;;;1.67;90.19;100813.57;126659;1093;104388;-77
2020/12/22 00:52:32;;;;;;;98.40;54.23;;;;;;;1.65;90.36;100803.27;126657;1098;104421;-79
2020/12/22 00:55:00;;;;;;;98.60;53.35;;;;;;;1.64;89.63;100809.26;126595;1093;105848;-77
2020/12/22 00:57:27;;;;;;;97.00;53.43;;;;;;;1.63;89.53;100796.39;126688;1098;104366;-77
2020/12/22 01:00:06;;;;;;;101.50;54.70;;;;;;;1.62;89.91;100792.09;126674;1093;104445;-77
2020/12/22 01:02:34;;;;;;;98.63;54.33;;;;;;;1.61;89.64;100793.77;126707;1093;104519;-77
2020/12/22 01:05:02;;;;;;;97.77;52.30;;;;;;;1.61;89.68;100798.05;126646;1093;102708;-77
2020/12/22 01:07:30;;;;;;;98.57;53.93;;;;;;;1.60;89.67;100794.61;126396;1093;104554;-77
2020/12/22 01:09:57;;;;;;;99.23;54.50;;;;;;;1.59;89.75;100795.45;126603;1093;104391;-77
2020/12/22 01:12:24;;;;;;;94.20;53.37;;;;;;;1.60;89.80;100786.90;126627;1093;104481;-76
2020/12/22 01:14:52;;;;;;;99.17;53.53;;;;;;;1.61;89.68;100773.20;126608;1093;104522;-77
2020/12/22 01:17:19;;;;;;;98.27;53.80;;;;;;;1.61;89.75;100774.91;126658;1093;104616;-77
2020/12/22 01:19:47;;;;;;;99.83;54.87;;;;;;;1.60;89.75;100775.75;126599;1093;104391;-77
2020/12/22 01:22:14;;;;;;;97.20;54.87;;;;;;;1.60;89.82;100768.91;126664;1098;104429;-76
2020/12/22 01:24:41;;;;;;;101.03;54.87;;;;;;;1.62;89.89;100764.67;126613;1093;104541;-77
2020/12/22 01:27:09;;;;;;;102.90;54.40;;;;;;;1.62;89.72;100759.53;126575;1093;104443;-78
2020/12/22 01:29:36;;;;;;;96.73;52.13;;;;;;;1.62;89.71;100749.25;126681;1098;104403;-78
2020/12/22 01:32:03;;;;;;;95.13;50.83;;;;;;;1.64;89.41;100760.41;126612;1093;104481;-77
2020/12/22 01:34:30;;;;;;;94.37;51.70;;;;;;;1.64;89.49;100757.84;126662;1093;104391;-76
2020/12/22 01:36:58;;;;;;;90.97;51.33;;;;;;;1.65;89.64;100754.42;126791;1093;103307;-77
2020/12/22 01:39:25;;;;;;;96.23;52.40;;;;;;;1.67;89.91;100747.58;126430;1093;104436;-76
2020/12/22 01:41:52;;;;;;;92.83;52.03;;;;;;;1.68;89.72;100754.45;126623;1093;104535;-77
2020/12/22 01:44:20;;;;;;;94.03;51.63;;;;;;;1.69;89.47;100751.03;126570;1093;104535;-77
2020/12/22 01:46:49;;;;;;;93.57;51.13;;;;;;;1.70;89.43;100752.76;126670;1093;104360;-77
2020/12/22 01:49:23;;;;;;;93.70;51.97;;;;;;;1.71;89.41;100744.20;126669;1093;106682;-77
2020/12/22 01:51:53;;;;;;;89.87;49.93;;;;;;;1.73;89.21;100746.78;126734;1093;104532;-77
2020/12/22 01:54:20;;;;;;;84.77;48.93;;;;;;;1.76;89.39;100741.67;126647;1093;104499;-77
2020/12/22 01:56:48;;;;;;;89.00;49.10;;;;;;;1.76;89.59;100757.96;126456;1096;104408;-77
2020/12/22 01:59:19;;;;;;;89.93;49.20;;;;;;;1.76;89.10;100747.67;126729;1093;104550;-76
2020/12/22 02:01:49;;;;;;;86.70;48.17;;;;;;;1.78;89.07;100733.13;126692;1093;104478;-76
2020/12/22 02:04:17;;;;;;;85.23;48.40;;;;;;;1.80;89.11;100738.31;126718;1098;104589;-77
2020/12/22 02:06:45;;;;;;;84.57;47.60;;;;;;;1.79;88.73;100723.70;126443;1100;104619;-76
2020/12/22 02:09:12;;;;;;;82.90;45.97;;;;;;;1.79;88.51;100711.70;126680;1099;104375;-77
2020/12/22 02:11:41;;;;;;;76.12;43.15;;;;;;;1.80;88.71;100708.31;126514;1093;105695;-78
2020/12/22 02:14:10;;;;;;;74.93;43.90;;;;;;;1.81;88.52;100704.03;126487;1096;104439;-78
2020/12/22 02:16:39;;;;;;;80.87;45.33;;;;;;;1.82;88.41;100703.18;126635;1098;104371;-77
2020/12/22 02:19:21;;;;;;;78.60;43.50;;;;;;;1.83;88.57;100699.77;126591;1093;104522;-77
2020/12/22 02:21:49;;;;;;;78.47;44.40;;;;;;;1.84;88.41;100692.91;126606;1093;102056;-78
2020/12/22 02:24:17;;;;;;;74.83;43.43;;;;;;;1.84;88.59;100698.05;126655;1098;103902;-77
2020/12/22 02:26:44;;;;;;;74.33;43.83;;;;;;;1.84;88.43;100687.77;126668;1099;104417;-76
2020/12/22 02:29:12;;;;;;;72.03;42.37;;;;;;;1.85;88.35;100676.63;126608;1093;104433;-77
2020/12/22 02:31:39;;;;;;;73.57;42.63;;;;;;;1.85;88.05;100676.63;126678;1098;104525;-77
2020/12/22 02:34:06;;;;;;;77.03;43.43;;;;;;;1.86;87.92;100680.92;126687;1093;104375;-77
2020/12/22 02:36:34;;;;;;;71.00;41.05;;;;;;;1.86;88.02;100668.06;126699;1093;104398;-77
2020/12/22 02:39:02;;;;;;;77.10;42.87;;;;;;;1.86;87.85;100673.20;126641;1098;104453;-77
2020/12/22 02:41:29;;;;;;;71.00;41.90;;;;;;;1.85;87.57;100674.92;126579;1093;104539;-77
2020/12/22 02:43:57;;;;;;;68.77;40.67;;;;;;;1.86;87.86;100662.92;126628;1093;104391;-76
2020/12/22 02:46:24;;;;;;;67.00;39.90;;;;;;;1.85;87.24;100659.48;126687;1098;104465;-78
2020/12/22 02:48:51;;;;;;;68.10;40.03;;;;;;;1.87;87.53;100654.36;126625;1098;104891;-76
2020/12/22 02:51:19;;;;;;;65.63;39.97;;;;;;;1.87;87.51;100667.22;126677;1098;104388;-77
2020/12/22 02:53:46;;;;;;;67.87;39.88;;;;;;;1.86;86.79;100648.34;126599;1098;104528;-77
2020/12/22 02:56:14;;;;;;;69.17;39.80;;;;;;;1.87;87.00;100641.50;126517;1093;105773;-77
2020/12/22 02:58:41;;;;;;;68.33;41.53;;;;;;;1.87;87.02;100652.64;126620;1098;104557;-77
2020/12/22 03:01:08;;;;;;;66.93;38.33;;;;;;;1.88;87.36;100641.51;126708;1093;104377;-76
2020/12/22 03:03:36;;;;;;;66.60;39.80;;;;;;;1.87;87.14;100649.21;126448;1093;102932;-78
2020/12/22 03:06:04;;;;;;;69.67;40.33;;;;;;;1.87;87.25;100633.78;126699;1093;104439;-77
2020/12/22 03:08:31;;;;;;;69.07;39.83;;;;;;;1.87;86.94;100631.20;126447;1100;104427;-78
2020/12/22 03:10:58;;;;;;;65.07;40.10;;;;;;;1.85;86.78;100627.77;126673;1099;104478;-78
2020/12/22 03:13:25;;;;;;;68.73;40.33;;;;;;;1.85;86.92;100622.62;126764;1093;104833;-77
2020/12/22 03:15:52;;;;;;;66.70;41.07;;;;;;;1.85;86.86;100627.77;126701;1098;105210;-78
2020/12/22 03:18:20;;;;;;;68.50;40.40;;;;;;;1.83;87.08;100614.03;126635;1093;106735;-78
2020/12/22 03:20:47;;;;;;;70.50;41.47;;;;;;;1.80;86.52;100623.45;126692;1093;105077;-78
2020/12/22 03:23:15;;;;;;;65.63;40.83;;;;;;;1.78;86.30;100616.53;126728;1093;104429;-77
2020/12/22 03:25:44;;;;;;;69.53;41.77;;;;;;;1.74;86.34;100599.36;126653;1093;103588;-78
2020/12/22 03:28:12;;;;;;;74.17;42.90;;;;;;;1.71;86.95;100605.34;126656;1093;104459;-79
2020/12/22 03:30:39;;;;;;;74.67;42.80;;;;;;;1.69;86.67;100591.61;126635;1093;104516;-77
2020/12/22 03:33:06;;;;;;;73.17;41.77;;;;;;;1.67;86.66;100598.45;126709;1093;104388;-78
2020/12/22 03:35:34;;;;;;;70.77;41.00;;;;;;;1.66;86.93;100591.59;126715;1093;104398;-78
2020/12/22 03:38:02;;;;;;;69.80;41.47;;;;;;;1.63;86.91;100580.42;126736;1099;104916;-78
2020/12/22 03:40:30;;;;;;;77.03;44.50;;;;;;;1.62;86.69;100584.70;126558;1099;104530;-77
2020/12/22 03:42:57;;;;;;;76.73;44.07;;;;;;;1.59;86.74;100594.93;126637;1098;104484;-78
2020/12/22 03:45:25;;;;;;;74.15;43.80;;;;;;;1.57;86.70;100586.34;126673;1093;104385;-77
2020/12/22 03:47:52;;;;;;;73.97;42.80;;;;;;;1.55;86.85;100582.04;126646;1093;104368;-77
2020/12/22 03:50:24;;;;;;;74.53;44.27;;;;;;;1.53;86.67;100574.31;126730;1093;104436;-77
2020/12/22 03:52:51;;;;;;;78.03;43.60;;;;;;;1.51;87.08;100571.73;126648;1093;104394;-77
2020/12/22 03:55:18;;;;;;;78.27;44.27;;;;;;;1.50;86.86;100566.58;126524;1093;104628;-77
2020/12/22 03:57:46;;;;;;;75.67;45.07;;;;;;;1.48;86.79;100555.42;126665;1093;104729;-78
2020/12/22 04:00:14;;;;;;;75.00;45.03;;;;;;;1.46;87.03;100557.12;126668;1098;104432;-76
2020/12/22 04:02:43;;;;;;;85.73;46.23;;;;;;;1.45;87.12;100557.97;126725;1098;104545;-76
2020/12/22 04:05:11;;;;;;;78.53;46.33;;;;;;;1.41;86.81;100554.48;126627;1093;104600;-77
2020/12/22 04:07:38;;;;;;;77.13;45.00;;;;;;;1.41;86.74;100558.77;126721;1094;104535;-76
2020/12/22 04:10:07;;;;;;;77.27;44.70;;;;;;;1.39;87.18;100569.03;126689;1093;104435;-77
2020/12/22 04:12:36;;;;;;;76.13;45.17;;;;;;;1.38;87.08;100554.45;126722;1100;104525;-78
2020/12/22 04:15:05;;;;;;;80.07;46.53;;;;;;;1.37;87.17;100557.02;126468;1100;103668;-77
2020/12/22 04:17:33;;;;;;;80.23;47.33;;;;;;;1.35;87.04;100538.16;126422;1100;104590;-77
2020/12/22 04:20:00;;;;;;;79.80;46.07;;;;;;;1.34;87.26;100536.44;126587;1093;104388;-77
2020/12/22 04:22:28;;;;;;;82.47;45.20;;;;;;;1.32;87.11;100532.98;126650;1093;104592;-77
2020/12/22 04:24:55;;;;;;;79.17;46.03;;;;;;;1.32;86.96;100532.98;126450;1093;104517;-78
2020/12/22 04:27:23;;;;;;;74.57;43.17;;;;;;;1.32;86.94;100544.12;126673;1093;104544;-77
2020/12/22 04:29:50;;;;;;;77.10;44.33;;;;;;;1.32;86.86;100527.85;126672;1093;104388;-78
2020/12/22 04:32:18;;;;;;;80.50;46.43;;;;;;;1.32;86.94;100528.71;126410;1100;104954;-77
2020/12/22 04:34:45;;;;;;;80.40;46.77;;;;;;;1.32;87.02;100527.85;126438;1093;103376;-77
2020/12/22 04:37:13;;;;;;;84.00;45.47;;;;;;;1.32;86.70;100523.57;126397;1093;104385;-78
2020/12/22 04:39:41;;;;;;;80.87;46.53;;;;;;;1.32;87.08;100526.14;126514;1093;103298;-77
2020/12/22 04:42:09;;;;;;;79.83;46.57;;;;;;;1.32;86.65;100517.58;126447;1093;104471;-77
2020/12/22 04:44:36;;;;;;;81.30;46.33;;;;;;;1.32;86.77;100520.14;126433;1093;104474;-77
2020/12/22 04:47:04;;;;;;;78.93;46.77;;;;;;;1.29;86.97;100520.98;126653;1093;104482;-77
2020/12/22 04:49:36;;;;;;;83.30;47.30;;;;;;;1.29;86.92;100518.41;126683;1093;104455;-77
2020/12/22 04:52:03;;;;;;;81.83;45.90;;;;;;;1.30;86.66;100508.99;126642;1098;104496;-77
2020/12/22 04:54:33;;;;;;;82.63;45.73;;;;;;;1.31;86.97;100509.00;126638;1099;104474;-77
2020/12/22 04:57:05;;;;;;;81.70;45.73;;;;;;;1.31;86.96;100519.28;126586;1093;104496;-77
2020/12/22 04:59:33;;;;;;;78.53;44.87;;;;;;;1.32;86.53;100503.02;126631;1093;104455;-77
2020/12/22 05:02:00;;;;;;;82.83;45.23;;;;;;;1.32;86.74;100503.02;126428;1093;104430;-76
2020/12/22 05:04:36;;;;;;;78.30;44.27;;;;;;;1.34;86.80;100510.73;126563;1093;102692;-76
2020/12/22 05:07:07;;;;;;;80.97;45.03;;;;;;;1.34;86.85;100497.89;126675;1098;104501;-77
2020/12/22 05:09:35;;;;;;;76.63;44.63;;;;;;;1.35;86.72;100523.59;126607;1093;105425;-77
2020/12/22 05:12:03;;;;;;;82.87;45.47;;;;;;;1.35;86.46;100485.05;126670;1093;104461;-77
2020/12/22 05:14:30;;;;;;;81.50;45.60;;;;;;;1.36;86.27;100514.18;126605;1093;103198;-77
2020/12/22 05:16:58;;;;;;;76.73;44.90;;;;;;;1.35;86.53;100500.47;126593;1098;104417;-76
2020/12/22 05:19:33;;;;;;;84.90;46.50;;;;;;;1.35;86.59;100500.47;126669;1093;104545;-77
2020/12/22 05:22:06;;;;;;;81.27;44.67;;;;;;;1.36;86.48;100483.34;126600;1093;104231;-77
2020/12/22 05:24:36;;;;;;;79.33;43.73;;;;;;;1.35;86.59;100500.47;126767;1093;104430;-77
2020/12/22 05:27:04;;;;;;;81.90;44.90;;;;;;;1.35;86.50;100492.76;126691;1093;104330;-77
2020/12/22 05:29:36;;;;;;;79.03;45.17;;;;;;;1.36;86.30;100488.48;126652;1098;104503;-77
2020/12/22 05:32:04;;;;;;;76.03;43.50;;;;;;;1.36;86.16;100488.48;126693;1093;104497;-77
2020/12/22 05:34:32;;;;;;;77.20;44.43;;;;;;;1.36;86.33;100499.62;126568;1093;104398;-77
2020/12/22 05:37:00;;;;;;;78.20;43.43;;;;;;;1.37;86.39;100474.78;126581;1093;104545;-77
2020/12/22 05:39:27;;;;;;;73.05;42.15;;;;;;;1.36;86.40;100493.63;126595;1093;104920;-77
2020/12/22 05:41:56;;;;;;;79.20;43.40;;;;;;;1.34;86.08;100465.34;126636;1093;104520;-77
2020/12/22 05:44:26;;;;;;;75.97;43.07;;;;;;;1.36;86.19;100457.64;126763;1093;104544;-78
2020/12/22 05:46:58;;;;;;;77.13;43.17;;;;;;;1.37;86.35;100454.22;126477;1093;104378;-77
2020/12/22 05:49:26;;;;;;;72.03;41.07;;;;;;;1.37;85.99;100449.09;126690;1098;104401;-77
2020/12/22 05:51:54;;;;;;;70.57;40.83;;;;;;;1.36;86.11;100453.36;126435;1100;104436;-77
2020/12/22 05:54:22;;;;;;;70.37;40.13;;;;;;;1.37;85.92;100457.66;126661;1093;104437;-77
2020/12/22 05:56:49;;;;;;;70.07;39.33;;;;;;;1.37;85.85;100444.80;126729;1093;105162;-77
2020/12/22 05:59:20;;;;;;;68.90;39.97;;;;;;;1.37;86.04;100439.66;126617;1098;104579;-77
2020/12/22 06:01:48;;;;;;;74.50;40.20;;;;;;;1.36;85.79;100435.38;126430;1093;104851;-76
2020/12/22 06:04:18;;;;;;;69.37;39.30;;;;;;;1.38;85.75;100432.81;126611;1093;104569;-76
2020/12/22 06:06:46;;;;;;;65.40;38.83;;;;;;;1.38;85.34;100441.39;126425;1100;104436;-77
2020/12/22 06:09:15;;;;;;;68.27;37.77;;;;;;;1.38;85.42;100440.53;126616;1098;104391;-75
2020/12/22 06:11:49;;;;;;;68.27;38.90;;;;;;;1.40;85.81;100420.84;126389;1093;104237;-76
2020/12/22 06:14:25;;;;;;;69.33;39.13;;;;;;;1.39;85.78;100413.97;126424;1093;104436;-76
2020/12/22 06:17:04;;;;;;;63.87;37.20;;;;;;;1.40;85.50;100426.84;126691;1098;104464;-76
2020/12/22 06:19:38;;;;;;;64.47;37.30;;;;;;;1.41;85.59;100404.56;126421;1096;104522;-76
2020/12/22 06:22:12;;;;;;;67.30;38.20;;;;;;;1.39;85.27;100395.98;126679;1098;104460;-77
2020/12/22 06:24:40;;;;;;;65.50;36.80;;;;;;;1.38;85.24;100395.12;126724;1093;104439;-77
2020/12/22 06:27:11;;;;;;;67.47;38.90;;;;;;;1.37;85.46;100382.27;126724;1099;104554;-77
2020/12/22 06:29:44;;;;;;;64.23;37.47;;;;;;;1.36;85.38;100371.13;126496;1093;102783;-77
2020/12/22 06:32:26;;;;;;;62.00;36.20;;;;;;;1.36;85.61;100365.13;126716;1099;104522;-77
2020/12/22 06:35:19;;;;;;;64.43;36.33;;;;;;;1.35;85.11;100373.70;126510;1093;102940;-77
2020/12/22 06:37:47;;;;;;;64.43;36.20;;;;;;;1.34;85.16;100384.83;126613;1093;106384;-76
2020/12/22 06:40:14;;;;;;;65.40;37.30;;;;;;;1.34;84.99;100369.41;126532;1094;104196;-76
2020/12/22 06:42:46;;;;;;;62.57;36.23;;;;;;;1.31;84.93;100357.40;126681;1093;104417;-77
2020/12/22 06:45:35;;;;;;;61.80;35.50;;;;;;;1.32;85.30;100353.13;126690;1094;104885;-78
2020/12/22 06:48:02;;;;;;;66.37;36.73;;;;;;;1.31;85.26;100367.68;126686;1093;105172;-77
2020/12/22 06:50:46;;;;;;;67.10;37.37;;;;;;;1.29;84.99;100348.83;126688;1098;104445;-77
2020/12/22 06:53:41;;;;;;;60.90;35.43;;;;;;;1.30;85.10;100354.83;126708;1093;104449;-77
2020/12/22 06:56:08;;;;;;;61.23;35.50;;;;;;;1.27;85.05;100355.67;126577;1099;104451;-77
2020/12/22 06:58:38;;;;;;;60.20;33.77;;;;;;;1.28;84.93;100347.11;126693;1093;104368;-77
2020/12/22 07:01:26;;;;;;;60.97;34.30;;;;;;;1.29;85.04;100350.53;126454;1093;104522;-77
2020/12/22 07:03:54;;;;;;;63.57;35.83;;;;;;;1.29;85.25;100335.12;126613;1098;104385;-78
2020/12/22 07:06:44;;;;;;;55.93;33.50;;;;;;;1.29;84.94;100378.80;126693;1093;104451;-78
2020/12/22 07:09:21;;;;;;;60.83;34.53;;;;;;;1.30;84.86;100359.96;126638;1093;104394;-77
2020/12/22 07:11:50;;;;;;;62.63;34.90;;;;;;;1.31;84.71;100357.40;126502;1093;104913;-77
2020/12/22 07:14:19;;;;;;;58.83;34.47;;;;;;;1.32;84.61;100353.13;126706;1093;103409;-77
2020/12/22 07:16:54;;;;;;;59.87;35.07;;;;;;;1.33;84.88;100365.98;126643;1093;104560;-77
2020/12/22 07:19:34;;;;;;;60.27;33.40;;;;;;;1.34;84.59;100364.27;126450;1097;104388;-77
2020/12/22 07:22:03;;;;;;;62.83;35.07;;;;;;;1.34;84.86;100366.84;126676;1093;104501;-76
2020/12/22 07:24:34;;;;;;;57.37;34.37;;;;;;;1.32;84.59;100351.41;126686;1099;102859;-77
2020/12/22 07:27:03;;;;;;;62.43;35.20;;;;;;;1.32;84.65;100368.54;126670;1093;104474;-77
2020/12/22 07:29:30;;;;;;;61.60;34.37;;;;;;;1.32;84.82;100327.42;126651;1098;102101;-77
2020/12/22 07:32:00;;;;;;;62.90;35.37;;;;;;;1.31;84.45;100335.98;126641;1098;104391;-76
2020/12/22 07:34:27;;;;;;;56.80;32.97;;;;;;;1.31;84.61;100336.84;126658;1093;104410;-76
2020/12/22 07:37:07;;;;;;;54.67;33.30;;;;;;;1.31;84.16;100305.16;126580;1093;105593;-76
2020/12/22 07:39:35;;;;;;;54.80;31.87;;;;;;;1.31;84.26;100300.02;126660;1098;104487;-75
2020/12/22 07:42:17;;;;;;;55.13;31.87;;;;;;;1.32;84.27;100292.31;126405;1098;105034;-77
2020/12/22 07:44:48;;;;;;;56.23;32.47;;;;;;;1.32;84.31;100282.03;126500;1096;104362;-77
2020/12/22 07:47:16;;;;;;;53.07;32.67;;;;;;;1.33;84.22;100301.73;126440;1100;104467;-76
2020/12/22 07:49:44;;;;;;;57.87;31.93;;;;;;;1.34;83.86;100277.76;126484;1093;104378;-76
2020/12/22 07:52:21;;;;;;;58.17;32.97;;;;;;;1.33;84.13;100288.03;126714;1093;104538;-77
2020/12/22 07:54:58;;;;;;;52.43;32.40;;;;;;;1.33;84.15;100288.03;126633;1098;104336;-77
2020/12/22 07:57:26;;;;;;;53.93;31.47;;;;;;;1.33;83.85;100313.73;126454;1099;104513;-77
2020/12/22 08:00:08;;;;;;;54.87;32.17;;;;;;;1.33;84.30;100293.17;126691;1098;104392;-76
2020/12/22 08:02:35;;;;;;;59.57;33.10;;;;;;;1.33;84.28;100286.32;126675;1093;104430;-77
2020/12/22 08:05:14;;;;;;;56.90;33.07;;;;;;;1.32;83.98;100286.31;126417;1093;104516;-77
2020/12/22 08:07:42;;;;;;;55.13;30.97;;;;;;;1.32;84.26;100258.05;126667;1093;104407;-77
2020/12/22 08:10:14;;;;;;;53.30;30.43;;;;;;;1.30;84.13;100249.48;126410;1099;104176;-77
2020/12/22 08:12:52;;;;;;;52.77;31.33;;;;;;;1.31;83.83;100271.75;126405;1093;104430;-77
2020/12/22 08:15:21;;;;;;;55.07;32.83;;;;;;;1.28;84.16;100240.91;126472;1093;104465;-77
2020/12/22 08:17:53;;;;;;;56.53;31.13;;;;;;;1.28;84.18;100269.17;126718;1093;104500;-76
2020/12/22 08:20:23;;;;;;;52.50;30.90;;;;;;;1.26;83.57;100246.04;126636;1093;104574;-77
2020/12/22 08:22:51;;;;;;;53.60;30.97;;;;;;;1.26;83.87;100237.44;126425;1093;104480;-77
2020/12/22 08:25:18;;;;;;;51.90;30.77;;;;;;;1.22;83.43;100269.97;126484;1093;104461;-77
2020/12/22 08:27:46;;;;;;;51.17;31.40;;;;;;;1.20;84.18;100230.57;126716;1093;104446;-77
2020/12/22 08:30:20;;;;;;;55.50;31.10;;;;;;;1.19;83.89;100232.28;126669;1098;104596;-77
2020/12/22 08:32:48;;;;;;;51.97;29.17;;;;;;;1.18;84.07;100222.86;126447;1096;104420;-78
2020/12/22 08:35:20;;;;;;;52.17;30.23;;;;;;;1.18;84.29;100233.13;126669;1093;104397;-76
2020/12/22 08:37:48;;;;;;;50.50;30.27;;;;;;;1.17;84.21;100233.98;126666;1093;104450;-78
2020/12/22 08:40:26;;;;;;;51.00;29.93;;;;;;;1.15;83.71;100204.86;126727;1098;104548;-76
2020/12/22 08:42:54;;;;;;;52.43;31.00;;;;;;;1.15;83.63;100194.59;126699;1093;104528;-77
2020/12/22 08:45:21;;;;;;;55.83;32.37;;;;;;;1.13;83.81;100229.69;126391;1097;104634;-76
2020/12/22 08:47:53;;;;;;;53.47;31.63;;;;;;;1.11;83.93;100205.70;126650;1093;104426;-77
2020/12/22 08:50:21;;;;;;;53.20;30.15;;;;;;;1.09;84.04;100202.27;126638;1099;104490;-77
2020/12/22 08:52:49;;;;;;;48.60;29.77;;;;;;;1.09;83.94;100222.83;126570;1098;104437;-77
2020/12/22 08:55:16;;;;;;;52.57;29.93;;;;;;;1.07;84.16;100198.81;126461;1093;105081;-76
2020/12/22 08:57:44;;;;;;;53.23;30.90;;;;;;;1.07;84.11;100185.11;126642;1093;104456;-77
2020/12/22 09:00:17;;;;;;;51.23;30.80;;;;;;;1.07;84.44;100173.13;126634;1099;103214;-77
2020/12/22 09:02:51;;;;;;;56.40;32.43;;;;;;;1.06;84.16;100153.44;126370;1093;104381;-76
2020/12/22 09:05:19;;;;;;;50.00;28.97;;;;;;;1.06;84.08;100163.70;126670;1093;104475;-77
2020/12/22 09:08:07;;;;;;;48.90;28.57;;;;;;;1.07;84.24;100150.01;126706;1093;104538;-76
2020/12/22 09:10:45;;;;;;;;;;;;;;;1.07;84.03;100167.98;126662;1094;104856;-77
2020/12/22 09:13:16;;;;;;;52.23;29.67;;;;;;;1.08;84.54;100159.47;126678;1093;104627;-78
2020/12/22 09:15:54;;;;;;;51.33;29.17;;;;;;;1.09;84.54;100144.91;126398;1097;104573;-77
2020/12/22 09:18:21;;;;;;;52.33;29.93;;;;;;;1.09;84.69;100143.20;126606;1093;104461;-77
2020/12/22 09:21:05;;;;;;;50.63;29.87;;;;;;;1.10;84.86;100120.94;126666;1098;104942;-76
2020/12/22 09:23:43;;;;;;;54.90;31.07;;;;;;;1.11;84.95;100132.93;126412;1093;102964;-77
2020/12/22 09:26:11;;;;;;;47.87;30.63;;;;;;;1.09;84.84;100125.22;126673;1099;104442;-77
2020/12/22 09:28:38;;;;;;;52.95;28.05;;;;;;;1.07;85.14;100121.76;126431;1096;104381;-77
2020/12/22 09:31:06;;;;;;;52.90;29.50;;;;;;;1.05;85.69;100125.17;126448;1100;104491;-77
2020/12/22 09:33:33;;;;;;;50.83;29.00;;;;;;;1.00;86.04;100114.89;126656;1093;104460;-77
2020/12/22 09:36:01;;;;;;;54.83;30.90;;;;;;;0.98;86.01;100083.22;126639;1099;104577;-77
2020/12/22 09:38:29;;;;;;;55.17;30.80;;;;;;;0.96;86.59;100084.92;126414;1097;104850;-78
2020/12/22 09:40:56;;;;;;;56.37;30.93;;;;;;;0.92;86.92;100100.31;126668;1098;104516;-78
2020/12/22 09:43:23;;;;;;;54.43;29.90;;;;;;;0.90;86.60;100097.75;126648;1099;104811;-78
2020/12/22 09:45:51;;;;;;;54.90;30.40;;;;;;;0.87;87.06;100102.84;126709;1098;104486;-78
2020/12/22 09:48:18;;;;;;;60.80;30.70;;;;;;;0.85;87.14;100114.81;126647;1093;105726;-79
2020/12/22 09:50:45;;;;;;;55.20;30.17;;;;;;;0.83;88.06;100101.11;126685;1098;104394;-80
2020/12/22 09:53:13;;;;;;;56.17;30.70;;;;;;;0.82;87.83;100078.86;126490;1100;104503;-78
2020/12/22 09:55:40;;;;;;;52.00;30.23;;;;;;;0.81;87.87;100087.42;126472;1100;103320;-79
2020/12/22 09:58:23;;;;;;;56.53;31.40;;;;;;;0.78;88.33;100088.27;126562;1093;104535;-78
2020/12/22 10:00:51;;;;;;;57.93;31.30;;;;;;;0.77;88.38;100052.32;126408;1100;104534;-79
2020/12/22 10:03:18;;;;;;;57.03;30.57;;;;;;;0.77;88.58;100065.16;126437;1100;104433;-78
2020/12/22 10:05:48;;;;;;;54.70;30.37;;;;;;;0.76;88.80;100069.44;126474;1100;102304;-79
2020/12/22 10:08:16;;;;;;;57.10;33.43;;;;;;;0.75;88.79;100060.02;126487;1093;103437;-79
2020/12/22 10:10:43;;;;;;;61.13;33.97;;;;;;;0.75;88.83;100047.19;126439;1093;103541;-79
2020/12/22 10:13:11;;;;;;;55.57;31.90;;;;;;;0.74;89.12;100042.05;126420;1097;104539;-79
2020/12/22 10:15:38;;;;;;;59.95;33.58;;;;;;;0.75;89.21;100051.46;126419;1093;104535;-78
2020/12/22 10:18:09;;;;;;;55.17;32.37;;;;;;;0.76;89.44;100045.48;126461;1100;104490;-79
2020/12/22 10:20:37;;;;;;;64.57;35.80;;;;;;;0.75;89.52;100020.66;126708;1098;104452;-79
2020/12/22 10:23:05;;;;;;;58.10;33.67;;;;;;;0.76;89.68;100037.77;126510;1100;104971;-79
2020/12/22 10:25:32;;;;;;;57.40;33.23;;;;;;;0.75;89.86;100023.23;126456;1099;105272;-79
2020/12/22 10:28:00;;;;;;;58.97;32.43;;;;;;;0.76;89.92;100028.36;126467;1096;104446;-79
2020/12/22 10:30:29;;;;;;;59.27;32.53;;;;;;;0.78;89.93;100015.53;126430;1100;104562;-80
2020/12/22 10:32:56;;;;;;;54.50;30.53;;;;;;;0.77;90.17;100042.05;126710;1093;104484;-80
2020/12/22 10:35:23;;;;;;;53.57;31.53;;;;;;;0.78;90.32;100018.09;126466;1100;104583;-79
2020/12/22 10:37:51;;;;;;;62.17;32.90;;;;;;;0.77;90.12;100014.67;126468;1099;104441;-80
2020/12/22 10:40:18;;;;;;;58.13;31.87;;;;;;;0.77;90.87;100048.05;126692;1093;104474;-80
2020/12/22 10:42:45;;;;;;;61.85;33.58;;;;;;;0.78;90.33;100023.23;126448;1098;104494;-80
2020/12/22 10:45:13;;;;;;;57.40;32.80;;;;;;;0.77;90.32;99996.70;126704;1100;103573;-79
2020/12/22 10:47:41;;;;;;;62.43;34.20;;;;;;;0.79;90.41;99987.30;126679;1098;104449;-79
2020/12/22 10:50:09;;;;;;;55.07;31.63;;;;;;;0.80;90.76;99983.88;126427;1098;104436;-80
2020/12/22 10:52:37;;;;;;;56.33;31.27;;;;;;;0.82;90.88;99971.04;126461;1100;104379;-80
2020/12/22 10:55:04;;;;;;;56.47;31.47;;;;;;;0.84;91.27;99972.75;126699;1098;105235;-80
2020/12/22 10:57:32;;;;;;;55.77;31.37;;;;;;;0.87;91.30;100000.14;126713;1098;104446;-80
2020/12/22 11:00:00;;;;;;;53.90;31.40;;;;;;;0.89;91.63;99959.92;126544;1099;104544;-80
2020/12/22 11:02:29;;;;;;;58.03;32.67;;;;;;;0.91;91.76;99981.34;126439;1100;103185;-80
2020/12/22 11:04:56;;;;;;;58.73;31.97;;;;;;;0.91;91.09;99940.27;126460;1100;104196;-80
2020/12/22 11:07:35;;;;;;;56.30;32.03;;;;;;;0.91;91.03;99950.54;126470;1100;104381;-81
2020/12/22 11:10:03;;;;;;;55.67;31.97;;;;;;;0.92;91.68;99941.98;126500;1097;104439;-80
2020/12/22 11:12:31;;;;;;;57.20;32.33;;;;;;;0.95;91.46;99943.69;126730;1098;104567;-81